createdAt,value
2022-11-03T00:03:49.609Z,34.28
2022-11-03T00:08:54.108Z,34.05
2022-11-03T00:13:58.894Z,33.90
2022-11-03T00:19:02.133Z,33.67
2022-11-03T00:24:07.567Z,33.47
2022-11-03T00:29:12.418Z,33.42
2022-11-03T00:34:15.608Z,33.75
2022-11-03T00:39:20.275Z,34.42
2022-11-03T00:44:23.450Z,33.72
2022-11-03T00:49:26.555Z,33.92
2022-11-03T00:54:31.089Z,34.40
2022-11-03T00:59:34.254Z,33.35
2022-11-03T01:04:54.795Z,33.72
2022-11-03T01:09:59.385Z,33.92
2022-11-03T01:15:02.505Z,33.30
2022-11-03T01:20:06.499Z,34.15
2022-11-03T01:25:11.270Z,34.33
2022-11-03T01:30:14.599Z,34.25
2022-11-03T01:35:17.704Z,34.08
2022-11-03T01:40:22.524Z,34.08
2022-11-03T01:45:25.837Z,34.15
2022-11-03T01:50:30.289Z,34.63
2022-11-03T01:55:37.618Z,33.80
2022-11-03T02:00:44.212Z,33.88
2022-11-03T02:05:48.872Z,34.28
2022-11-03T02:10:53.713Z,33.65
2022-11-03T02:15:59.741Z,33.85
2022-11-03T02:21:10.378Z,33.45
2022-11-03T02:26:16.836Z,33.97
2022-11-03T02:31:29.914Z,33.65
2022-11-03T02:36:38.206Z,34.05
2022-11-03T02:41:44.680Z,34.28
2022-11-03T02:46:50.460Z,34.63
2022-11-03T02:52:00.990Z,34.45
2022-11-03T02:57:10.974Z,33.88
2022-11-03T03:02:19.754Z,34.30
2022-11-03T03:07:27.807Z,34.70
2022-11-03T03:12:33.644Z,34.60
2022-11-03T03:17:45.442Z,33.90
2022-11-03T03:22:52.888Z,34.00
2022-11-03T03:28:02.650Z,33.90
2022-11-03T03:33:08.773Z,33.90
2022-11-03T03:38:17.053Z,34.28
2022-11-03T03:43:23.274Z,33.78
2022-11-03T03:48:26.549Z,33.70
2022-11-03T03:53:31.361Z,33.88
2022-11-03T03:58:35.931Z,33.40
2022-11-03T04:03:39.001Z,33.90
2022-11-03T04:08:42.120Z,33.28
2022-11-03T04:14:12.516Z,33.83
2022-11-03T04:19:32.941Z,34.08
2022-11-03T04:24:36.177Z,34.25
2022-11-03T04:29:40.821Z,34.22
2022-11-03T04:34:44.211Z,34.20
2022-11-03T04:39:47.361Z,33.67
2022-11-03T04:44:52.182Z,34.10
2022-11-03T04:49:55.373Z,35.88
2022-11-03T04:54:58.518Z,34.28
2022-11-03T05:00:03.361Z,36.47
2022-11-03T05:05:16.198Z,34.80
2022-11-03T05:10:22.108Z,35.95
2022-11-03T05:15:33.518Z,34.30
2022-11-03T05:20:41.922Z,33.70
2022-11-03T05:25:48.249Z,33.05
2022-11-03T05:30:53.914Z,33.50
2022-11-03T05:35:58.003Z,33.20
2022-11-03T05:41:02.284Z,35.58
2022-11-03T05:51:20.561Z,33.72
2022-11-03T05:56:58.868Z,33.05
2022-11-03T06:02:30.180Z,33.05
2022-11-03T06:07:35.908Z,35.42
2022-11-03T06:12:39.203Z,34.97
2022-11-03T06:17:43.872Z,34.95
2022-11-03T06:22:48.547Z,35.00
2022-11-03T06:27:52.491Z,35.15
2022-11-03T06:33:00.462Z,34.45
2022-11-03T06:38:03.772Z,34.97
2022-11-03T06:43:20.722Z,33.30
2022-11-03T06:48:28.479Z,34.40
2022-11-03T06:53:34.890Z,35.45
2022-11-03T06:58:38.953Z,34.72
2022-11-03T07:03:43.667Z,35.22
2022-11-03T07:08:49.494Z,34.78
2022-11-03T07:13:55.120Z,34.65
2022-11-03T07:19:00.877Z,35.30
2022-11-03T07:24:14.342Z,34.80
2022-11-03T07:29:22.272Z,35.13
2022-11-03T07:34:30.279Z,34.90
2022-11-03T07:39:37.336Z,36.30
2022-11-03T07:44:41.408Z,35.55
2022-11-03T07:49:46.343Z,37.40
2022-11-03T07:54:49.652Z,35.85
2022-11-03T07:59:55.091Z,35.38
2022-11-03T08:04:59.604Z,34.97
2022-11-03T08:10:02.569Z,37.42
2022-11-03T08:15:06.720Z,37.05
2022-11-03T08:20:12.014Z,36.08
2022-11-03T08:25:15.042Z,36.10
2022-11-03T08:30:18.109Z,35.78
2022-11-03T08:35:22.502Z,34.90
2022-11-03T08:40:25.524Z,35.65
2022-11-03T08:45:28.454Z,36.10
2022-11-03T08:50:32.734Z,34.85
2022-11-03T08:55:35.678Z,34.83
2022-11-03T09:00:41.166Z,35.28
2022-11-03T09:05:45.678Z,35.33
2022-11-03T09:10:49.632Z,35.17
2022-11-03T09:15:52.738Z,34.92
2022-11-03T09:20:56.972Z,34.28
2022-11-03T09:25:59.872Z,34.65
2022-11-03T09:31:02.850Z,35.40
2022-11-03T09:36:07.714Z,35.20
2022-11-03T09:41:26.199Z,36.50
2022-11-03T09:46:38.500Z,36.92
2022-11-03T09:51:43.236Z,36.70
2022-11-03T09:56:54.079Z,35.90
2022-11-03T10:01:57.233Z,37.90
2022-11-03T10:07:01.553Z,38.00
2022-11-03T10:12:04.674Z,35.88
2022-11-03T10:17:07.932Z,37.85
2022-11-03T10:22:12.225Z,36.30
2022-11-03T10:27:23.292Z,37.40
2022-11-03T10:32:34.790Z,36.35
2022-11-03T10:37:39.908Z,35.80
2022-11-03T10:42:58.753Z,38.15
2022-11-03T10:48:03.333Z,37.25
2022-11-03T10:53:15.040Z,36.78
2022-11-03T10:58:18.049Z,36.10
2022-11-03T11:03:21.211Z,36.53
2022-11-03T11:08:25.722Z,37.22
2022-11-03T11:13:30.969Z,37.75
2022-11-03T11:19:11.478Z,36.38
2022-11-03T11:24:35.708Z,37.17
2022-11-03T11:29:38.638Z,37.50
2022-11-03T11:34:41.547Z,36.95
2022-11-03T11:39:46.044Z,36.65
2022-11-03T11:45:13.825Z,36.03
2022-11-03T11:50:32.421Z,36.30
2022-11-03T11:55:43.854Z,36.58
2022-11-03T12:00:59.841Z,36.45
2022-11-03T12:06:02.964Z,35.90
2022-11-03T12:11:08.649Z,36.30
2022-11-03T12:16:12.331Z,36.35
2022-11-03T12:21:47.974Z,36.85
2022-11-03T12:26:52.237Z,36.30
2022-11-03T12:31:55.655Z,37.10
2022-11-03T12:36:59.573Z,36.80
2022-11-03T12:42:03.865Z,36.58
2022-11-03T12:47:06.919Z,37.17
2022-11-03T12:52:10.573Z,36.67
2022-11-03T12:57:14.847Z,37.30
2022-11-03T13:02:17.923Z,36.83
2022-11-03T13:07:27.737Z,37.53
2022-11-03T13:12:38.190Z,37.75
2022-11-03T13:23:06.288Z,39.20
2022-11-03T13:28:10.842Z,38.20
2022-11-03T13:33:13.760Z,38.28
2022-11-03T13:38:19.651Z,37.67
2022-11-03T13:43:24.974Z,37.40
2022-11-03T14:04:46.727Z,37.15
2022-11-03T14:09:49.627Z,37.65
2022-11-03T14:14:53.845Z,37.00
2022-11-03T14:20:02.546Z,37.67
2022-11-03T14:25:08.733Z,37.38
2022-11-03T14:30:14.266Z,37.20
2022-11-03T14:35:17.232Z,37.22
2022-11-03T14:40:34.052Z,37.95
2022-11-03T14:45:41.468Z,37.22
2022-11-03T14:50:45.627Z,37.28
2022-11-03T14:55:48.534Z,36.75
2022-11-03T15:00:52.824Z,37.40
2022-11-03T15:05:55.877Z,38.05
2022-11-03T15:10:59.141Z,37.70
2022-11-03T15:16:03.385Z,37.55
2022-11-03T15:21:06.934Z,38.75
2022-11-03T15:26:11.442Z,37.80
2022-11-03T15:31:15.698Z,37.42
2022-11-03T15:36:18.644Z,36.55
2022-11-03T15:41:22.636Z,37.03
2022-11-03T15:46:28.041Z,37.90
2022-11-03T15:51:31.060Z,37.47
2022-11-03T15:56:33.966Z,36.75
2022-11-03T16:01:38.300Z,37.05
2022-11-03T16:12:05.228Z,37.08
2022-11-03T16:17:10.096Z,37.28
2022-11-03T16:22:13.653Z,39.45
2022-11-03T16:27:17.688Z,39.58
2022-11-03T16:32:22.750Z,37.55
2022-11-03T16:37:27.555Z,37.15
2022-11-03T16:42:38.553Z,39.95
2022-11-03T16:47:42.859Z,38.35
2022-11-03T16:52:45.885Z,39.13
2022-11-03T16:57:48.839Z,38.90
2022-11-03T17:02:53.390Z,42.63
2022-11-03T17:07:56.372Z,41.63
2022-11-03T17:12:59.537Z,41.80
2022-11-03T17:18:03.821Z,39.67
2022-11-03T17:23:06.736Z,41.70
2022-11-03T17:28:11.464Z,41.55
2022-11-03T17:33:20.887Z,43.50
2022-11-03T17:38:25.255Z,41.20
2022-11-03T17:43:30.142Z,40.97
2022-11-03T17:48:34.368Z,39.17
2022-11-03T17:53:37.379Z,39.33
2022-11-03T17:58:45.991Z,37.33
2022-11-03T18:03:51.995Z,37.67
2022-11-03T18:08:54.885Z,36.38
2022-11-03T18:13:57.779Z,37.83
2022-11-03T18:19:02.088Z,36.90
2022-11-03T18:24:11.880Z,36.25
2022-11-03T18:29:14.824Z,37.83
2022-11-03T18:34:23.184Z,36.35
2022-11-03T18:39:28.878Z,35.60
2022-11-03T18:44:32.026Z,34.95
2022-11-03T18:49:36.318Z,35.03
2022-11-03T18:54:42.049Z,35.30
2022-11-03T18:59:45.799Z,35.30
2022-11-03T19:04:50.600Z,36.58
2022-11-03T19:09:53.578Z,36.30
2022-11-03T19:14:56.579Z,36.00
2022-11-03T19:20:00.946Z,35.63
2022-11-03T19:25:04.305Z,35.72
2022-11-03T19:30:16.884Z,35.60
2022-11-03T19:35:24.085Z,35.40
2022-11-03T19:40:27.099Z,36.17
2022-11-03T19:45:30.191Z,35.67
2022-11-03T19:50:37.223Z,35.28
2022-11-03T19:55:43.042Z,34.88
2022-11-03T20:00:46.776Z,35.08
2022-11-03T20:05:53.432Z,35.05
2022-11-03T20:10:56.747Z,34.50
2022-11-03T20:16:01.333Z,33.80
2022-11-03T20:21:07.011Z,33.95
2022-11-03T20:26:15.611Z,33.70
2022-11-03T20:31:19.010Z,34.80
2022-11-03T20:36:33.757Z,34.80
2022-11-03T20:41:36.741Z,34.17
2022-11-03T20:46:39.756Z,34.50
2022-11-03T20:51:46.146Z,34.25
2022-11-03T20:56:49.299Z,34.55
2022-11-03T21:01:52.656Z,33.40
2022-11-03T21:06:57.036Z,33.30
2022-11-03T21:12:10.159Z,33.67
2022-11-03T21:17:32.518Z,33.75
2022-11-03T21:22:54.465Z,34.67
2022-11-03T21:27:57.605Z,34.90
2022-11-03T21:33:00.513Z,34.08
2022-11-03T21:38:05.760Z,33.70
2022-11-03T21:43:28.944Z,34.15
2022-11-03T21:48:53.387Z,33.88
2022-11-03T21:53:57.591Z,34.22
2022-11-03T21:59:00.488Z,34.40
2022-11-03T22:04:03.547Z,34.38
2022-11-03T22:09:07.912Z,38.50
2022-11-03T22:14:12.672Z,35.33
2022-11-03T22:19:34.704Z,34.30
2022-11-03T22:24:57.421Z,35.40
2022-11-03T22:30:18.627Z,34.75
2022-11-03T22:35:40.264Z,34.80
2022-11-03T22:41:04.488Z,34.42
2022-11-03T22:46:08.304Z,34.67
2022-11-03T22:51:14.535Z,33.83
2022-11-03T22:56:19.873Z,33.75
2022-11-03T23:01:26.397Z,34.08
2022-11-03T23:06:34.703Z,33.65
2022-11-03T23:11:39.359Z,34.70
2022-11-03T23:16:43.640Z,33.38
2022-11-03T23:21:48.094Z,33.53
2022-11-03T23:26:52.624Z,33.40
2022-11-03T23:31:56.284Z,34.45
2022-11-03T23:37:00.133Z,33.95
2022-11-03T23:42:04.541Z,33.72
2022-11-03T23:47:26.508Z,34.63
2022-11-03T23:52:29.395Z,34.30
2022-11-03T23:57:51.137Z,34.35
